createdAt,value
2023-01-07T00:01:32.858Z,7.65
2023-01-07T00:04:01.548Z,7.70
2023-01-07T00:06:32.707Z,7.72
2023-01-07T00:09:00.802Z,7.72
2023-01-07T00:11:30.477Z,7.69
2023-01-07T00:13:58.833Z,7.71
2023-01-07T00:16:28.534Z,7.77
2023-01-07T00:18:56.612Z,7.77
2023-01-07T00:21:25.020Z,7.76
2023-01-07T00:23:56.635Z,7.83
2023-01-07T00:26:24.823Z,7.78
2023-01-07T00:28:52.658Z,7.77
2023-01-07T00:31:25.109Z,7.78
2023-01-07T00:34:06.718Z,7.75
2023-01-07T00:36:34.478Z,7.81
2023-01-07T00:39:02.970Z,7.80
2023-01-07T00:41:29.653Z,7.76
2023-01-07T00:43:57.094Z,7.82
2023-01-07T00:46:23.707Z,7.87
2023-01-07T00:48:50.840Z,7.90
2023-01-07T00:51:18.937Z,7.98
2023-01-07T00:53:45.758Z,7.93
2023-01-07T00:56:14.698Z,7.96
2023-01-07T00:58:42.098Z,8.00
2023-01-07T01:01:11.048Z,8.05
2023-01-07T01:03:38.851Z,8.00
2023-01-07T01:06:08.806Z,8.01
2023-01-07T01:08:35.730Z,7.98
2023-01-07T01:11:05.262Z,8.01
2023-01-07T01:13:32.549Z,8.10
2023-01-07T01:15:59.712Z,8.11
2023-01-07T01:18:26.431Z,8.08
2023-01-07T01:20:52.935Z,8.19
2023-01-07T01:23:19.419Z,8.19
2023-01-07T01:25:45.905Z,8.21
2023-01-07T01:28:12.477Z,8.21
2023-01-07T01:30:39.097Z,8.13
2023-01-07T01:33:06.175Z,8.25
2023-01-07T01:35:32.699Z,8.17
2023-01-07T01:38:00.704Z,8.16
2023-01-07T01:40:30.179Z,8.19
2023-01-07T01:42:56.775Z,8.23
2023-01-07T01:45:25.567Z,8.21
2023-01-07T01:47:56.792Z,8.24
2023-01-07T01:50:28.968Z,8.24
2023-01-07T01:53:05.021Z,8.25
2023-01-07T01:55:37.440Z,8.30
2023-01-07T01:58:08.121Z,8.27
2023-01-07T02:00:35.979Z,8.24
2023-01-07T02:03:06.699Z,8.32
2023-01-07T02:05:37.772Z,8.35
2023-01-07T02:08:06.357Z,8.29
2023-01-07T02:10:33.415Z,8.38
2023-01-07T02:13:37.169Z,8.42
2023-01-07T02:16:10.028Z,8.42
2023-01-07T02:18:47.820Z,8.35
2023-01-07T02:21:24.165Z,8.35
2023-01-07T02:24:16.798Z,8.35
2023-01-07T02:26:52.269Z,8.29
2023-01-07T02:30:05.157Z,8.30
2023-01-07T02:32:43.403Z,8.38
2023-01-07T02:35:31.523Z,8.44
2023-01-07T02:38:07.077Z,8.50
2023-01-07T02:40:53.828Z,8.44
2023-01-07T02:44:03.508Z,8.50
2023-01-07T02:46:49.627Z,8.51
2023-01-07T02:49:17.474Z,8.55
2023-01-07T02:51:46.257Z,8.56
2023-01-07T02:54:17.320Z,8.63
2023-01-07T02:57:21.118Z,8.61
2023-01-07T02:59:57.785Z,8.61
2023-01-07T03:02:45.969Z,8.64
2023-01-07T03:05:22.953Z,8.63
2023-01-07T03:08:27.108Z,8.64
2023-01-07T03:11:05.776Z,8.67
2023-01-07T03:13:48.918Z,8.65
2023-01-07T03:16:27.656Z,8.66
2023-01-07T03:19:01.702Z,8.68
2023-01-07T03:21:31.428Z,8.68
2023-01-07T03:23:58.770Z,8.68
2023-01-07T03:26:31.436Z,8.77
2023-01-07T03:29:00.871Z,8.73
2023-01-07T03:31:29.612Z,8.67
2023-01-07T03:34:08.546Z,8.74
2023-01-07T03:36:42.644Z,8.80
2023-01-07T03:39:11.819Z,8.77
2023-01-07T03:41:57.916Z,8.76
2023-01-07T03:44:24.719Z,8.79
2023-01-07T03:46:52.448Z,8.78
2023-01-07T03:49:19.158Z,8.81
2023-01-07T03:51:46.608Z,8.82
2023-01-07T03:54:13.871Z,8.78
2023-01-07T03:56:40.511Z,8.78
2023-01-07T03:59:07.049Z,8.81
2023-01-07T04:01:33.742Z,8.79
2023-01-07T04:04:03.011Z,8.83
2023-01-07T04:06:29.824Z,8.81
2023-01-07T04:08:56.359Z,8.88
2023-01-07T04:11:22.892Z,8.84
2023-01-07T04:13:49.427Z,8.80
2023-01-07T04:16:16.034Z,8.80
2023-01-07T04:18:42.605Z,8.77
2023-01-07T04:21:09.277Z,8.80
2023-01-07T04:23:35.768Z,8.84
2023-01-07T04:26:02.602Z,8.87
2023-01-07T04:28:29.125Z,8.93
2023-01-07T04:30:58.727Z,8.95
2023-01-07T04:33:25.344Z,8.96
2023-01-07T04:35:51.970Z,8.91
2023-01-07T04:38:18.510Z,8.93
2023-01-07T04:40:45.774Z,8.92
2023-01-07T04:43:12.303Z,9.01
2023-01-07T04:45:38.842Z,8.95
2023-01-07T04:48:05.635Z,9.01
2023-01-07T04:50:32.222Z,9.00
2023-01-07T04:52:58.754Z,8.95
2023-01-07T04:55:25.392Z,8.97
2023-01-07T04:57:51.961Z,8.99
2023-01-07T05:00:19.067Z,8.90
2023-01-07T05:02:46.111Z,8.98
2023-01-07T05:05:12.931Z,8.98
2023-01-07T05:07:39.457Z,8.88
2023-01-07T05:10:06.452Z,8.89
2023-01-07T05:12:36.677Z,8.98
2023-01-07T05:15:06.979Z,9.05
2023-01-07T05:17:33.984Z,9.07
2023-01-07T05:20:00.776Z,8.99
2023-01-07T05:22:27.301Z,8.99
2023-01-07T05:24:53.831Z,9.03
2023-01-07T05:27:20.450Z,9.02
2023-01-07T05:29:47.171Z,9.08
2023-01-07T05:32:13.685Z,9.09
2023-01-07T05:34:40.411Z,9.05
2023-01-07T05:37:06.947Z,8.99
2023-01-07T05:39:33.644Z,8.99
2023-01-07T05:42:00.278Z,9.03
2023-01-07T05:44:26.786Z,9.06
2023-01-07T05:46:53.397Z,9.18
2023-01-07T05:49:20.231Z,9.06
2023-01-07T05:51:46.849Z,9.11
2023-01-07T05:54:13.555Z,9.08
2023-01-07T05:56:40.229Z,9.12
2023-01-07T05:59:06.694Z,9.11
2023-01-07T06:01:33.409Z,9.16
2023-01-07T06:04:00.019Z,9.13
2023-01-07T06:06:26.522Z,9.16
2023-01-07T06:08:53.108Z,9.14
2023-01-07T06:11:20.170Z,9.10
2023-01-07T06:13:46.715Z,9.12
2023-01-07T06:16:14.156Z,9.24
2023-01-07T06:18:40.849Z,9.10
2023-01-07T06:21:07.456Z,9.14
2023-01-07T06:23:34.101Z,9.13
2023-01-07T06:26:00.743Z,9.17
2023-01-07T06:28:27.333Z,9.23
2023-01-07T06:30:53.965Z,9.21
2023-01-07T06:33:21.576Z,9.22
2023-01-07T06:35:48.404Z,9.23
2023-01-07T06:38:15.011Z,9.27
2023-01-07T06:40:41.616Z,9.18
2023-01-07T06:43:08.208Z,9.24
2023-01-07T06:45:34.821Z,9.26
2023-01-07T06:48:01.518Z,9.16
2023-01-07T06:50:28.112Z,9.21
2023-01-07T06:52:54.709Z,9.13
2023-01-07T06:55:21.198Z,9.12
2023-01-07T06:57:47.738Z,9.12
2023-01-07T07:00:14.777Z,9.23
2023-01-07T07:02:41.365Z,9.27
2023-01-07T07:05:08.000Z,9.18
2023-01-07T07:07:34.590Z,9.18
2023-01-07T07:10:04.713Z,9.24
2023-01-07T07:12:31.294Z,9.21
2023-01-07T07:14:57.888Z,9.24
2023-01-07T07:17:25.286Z,9.19
2023-01-07T07:19:51.793Z,9.25
2023-01-07T07:22:18.547Z,9.27
2023-01-07T07:24:45.056Z,9.22
2023-01-07T07:27:11.594Z,9.19
2023-01-07T07:29:38.161Z,9.17
2023-01-07T07:32:05.026Z,9.18
2023-01-07T07:34:31.605Z,9.23
2023-01-07T07:36:58.194Z,9.22
2023-01-07T07:39:25.344Z,9.30
2023-01-07T07:41:51.914Z,9.32
2023-01-07T07:44:18.499Z,9.34
2023-01-07T07:46:45.177Z,9.37
2023-01-07T07:49:12.518Z,9.27
2023-01-07T07:51:39.199Z,9.33
2023-01-07T07:54:05.794Z,9.43
2023-01-07T07:56:32.281Z,9.45
2023-01-07T07:58:58.839Z,9.49
2023-01-07T08:01:26.223Z,9.57
2023-01-07T08:03:52.853Z,9.44
2023-01-07T08:06:19.415Z,9.54
2023-01-07T08:08:45.917Z,9.57
2023-01-07T08:11:12.518Z,9.64
2023-01-07T08:13:39.250Z,9.71
2023-01-07T08:16:06.193Z,9.76
2023-01-07T08:18:32.793Z,9.76
2023-01-07T08:20:59.316Z,9.80
2023-01-07T08:23:28.174Z,9.79
2023-01-07T08:25:59.634Z,9.87
2023-01-07T08:28:26.305Z,9.96
2023-01-07T08:30:53.024Z,10.01
2023-01-07T08:33:19.689Z,10.03
2023-01-07T08:35:46.319Z,10.07
2023-01-07T08:38:12.988Z,10.15
2023-01-07T08:40:39.798Z,10.18
2023-01-07T08:43:08.103Z,10.21
2023-01-07T08:45:34.983Z,10.21
2023-01-07T08:48:01.592Z,10.26
2023-01-07T08:50:30.661Z,10.37
2023-01-07T08:52:58.531Z,10.32
2023-01-07T08:55:25.344Z,10.41
2023-01-07T08:57:52.207Z,10.35
2023-01-07T09:00:19.672Z,10.47
2023-01-07T09:02:46.334Z,10.49
2023-01-07T09:05:13.026Z,10.53
2023-01-07T09:07:39.553Z,10.46
2023-01-07T09:10:06.808Z,10.53
2023-01-07T09:12:33.480Z,10.56
2023-01-07T09:15:00.760Z,10.56
2023-01-07T09:17:28.098Z,10.61
2023-01-07T09:19:54.735Z,10.59
2023-01-07T09:22:22.607Z,10.59
2023-01-07T09:24:49.156Z,10.69
2023-01-07T09:27:16.703Z,10.71
2023-01-07T09:29:43.600Z,10.75
2023-01-07T09:32:10.727Z,10.78
2023-01-07T09:34:38.455Z,10.84
2023-01-07T09:37:05.911Z,10.81
2023-01-07T09:39:33.110Z,10.90
2023-01-07T09:42:35.225Z,10.87
2023-01-07T09:45:15.337Z,10.92
2023-01-07T09:47:48.559Z,11.01
2023-01-07T09:50:40.878Z,11.04
2023-01-07T09:53:16.408Z,11.03
2023-01-07T09:56:09.956Z,11.14
2023-01-07T09:58:30.684Z,11.17
2023-01-07T10:00:57.130Z,11.27
2023-01-07T10:03:37.142Z,11.25
2023-01-07T10:06:35.069Z,11.23
2023-01-07T10:09:15.846Z,11.29
2023-01-07T10:11:49.325Z,11.15
2023-01-07T10:14:53.354Z,11.26
2023-01-07T10:17:34.780Z,11.27
2023-01-07T10:20:21.587Z,11.21
2023-01-07T10:22:57.371Z,11.32
2023-01-07T10:25:31.947Z,11.30
2023-01-07T10:28:01.312Z,11.33
2023-01-07T10:30:35.833Z,11.37
2023-01-07T10:33:11.112Z,11.44
2023-01-07T10:35:40.236Z,11.40
2023-01-07T10:38:15.076Z,11.47
2023-01-07T10:40:51.703Z,11.47
2023-01-07T10:43:25.661Z,11.56
2023-01-07T10:45:55.056Z,11.58
2023-01-07T10:48:39.464Z,11.64
2023-01-07T10:51:42.304Z,11.76
2023-01-07T10:54:30.549Z,11.77
2023-01-07T10:57:21.350Z,11.81
2023-01-07T10:59:50.599Z,11.94
2023-01-07T11:02:20.706Z,11.97
2023-01-07T11:04:47.519Z,12.08
2023-01-07T11:07:47.629Z,12.16
2023-01-07T11:10:20.832Z,12.24
2023-01-07T11:12:50.026Z,12.18
2023-01-07T11:15:22.904Z,12.28
2023-01-07T11:17:56.685Z,12.33
2023-01-07T11:20:41.952Z,12.24
2023-01-07T11:23:38.317Z,12.24
2023-01-07T11:26:18.038Z,12.30
2023-01-07T11:28:58.022Z,12.34
2023-01-07T11:31:58.639Z,12.44
2023-01-07T11:34:50.292Z,12.58
2023-01-07T11:37:38.840Z,12.64
2023-01-07T11:40:20.116Z,12.59
2023-01-07T11:42:55.262Z,12.71
2023-01-07T11:45:34.057Z,12.65
2023-01-07T11:48:15.563Z,12.66
2023-01-07T11:50:54.394Z,12.80
2023-01-07T11:53:38.702Z,12.85
2023-01-07T11:56:33.524Z,12.96
2023-01-07T11:59:12.060Z,12.92
2023-01-07T12:02:02.214Z,13.11
2023-01-07T12:04:35.857Z,13.04
2023-01-07T12:07:06.861Z,13.05
2023-01-07T12:09:35.985Z,13.11
2023-01-07T12:12:40.189Z,13.12
2023-01-07T12:15:21.217Z,13.18
2023-01-07T12:17:53.122Z,13.16
2023-01-07T12:20:28.303Z,13.08
2023-01-07T12:23:34.014Z,13.09
2023-01-07T12:26:12.736Z,13.19
2023-01-07T12:29:08.445Z,13.19
2023-01-07T12:31:37.806Z,13.34
2023-01-07T12:34:33.381Z,13.44
2023-01-07T12:37:05.210Z,13.45
2023-01-07T12:39:38.044Z,13.38
2023-01-07T12:42:13.417Z,13.34
2023-01-07T12:44:46.364Z,13.47
2023-01-07T12:47:31.276Z,13.48
2023-01-07T12:50:14.874Z,13.45
2023-01-07T12:52:51.512Z,13.54
2023-01-07T12:55:43.076Z,13.35
2023-01-07T12:58:28.516Z,13.39
2023-01-07T13:01:10.524Z,13.36
2023-01-07T13:03:44.493Z,13.45
2023-01-07T13:06:35.056Z,13.34
2023-01-07T13:09:23.980Z,13.44
2023-01-07T13:12:40.693Z,13.43
2023-01-07T13:15:10.340Z,13.50
2023-01-07T13:17:37.288Z,13.50
2023-01-07T13:20:11.456Z,13.48
2023-01-07T13:22:51.384Z,13.60
2023-01-07T13:25:59.327Z,13.68
2023-01-07T13:28:37.786Z,13.69
2023-01-07T13:31:20.508Z,13.62
2023-01-07T13:34:16.406Z,13.65
2023-01-07T13:37:04.651Z,13.67
2023-01-07T13:39:45.894Z,13.76
2023-01-07T13:42:20.022Z,13.81
2023-01-07T13:45:14.535Z,13.77
2023-01-07T13:47:54.647Z,13.90
2023-01-07T13:50:25.696Z,13.75
2023-01-07T13:52:58.486Z,13.63
2023-01-07T13:55:35.671Z,13.69
2023-01-07T13:58:02.983Z,13.79
2023-01-07T14:00:40.815Z,13.74
2023-01-07T14:03:25.931Z,13.68
2023-01-07T14:06:18.207Z,13.55
2023-01-07T14:08:47.348Z,13.69
2023-01-07T14:11:14.656Z,13.71
2023-01-07T14:14:10.424Z,13.67
2023-01-07T14:16:42.884Z,13.54
2023-01-07T14:19:35.088Z,13.53
2023-01-07T14:22:04.638Z,13.50
2023-01-07T14:24:52.235Z,13.51
2023-01-07T14:27:59.950Z,13.61
2023-01-07T14:30:31.215Z,13.56
2023-01-07T14:33:04.498Z,13.55
2023-01-07T14:35:40.437Z,13.52
2023-01-07T14:38:31.925Z,13.57
2023-01-07T14:41:09.261Z,13.47
2023-01-07T14:43:42.182Z,13.44
2023-01-07T14:46:34.886Z,13.43
2023-01-07T14:49:04.163Z,13.55
2023-01-07T14:52:21.564Z,13.40
2023-01-07T14:55:26.341Z,13.44
2023-01-07T14:58:11.262Z,13.57
2023-01-07T15:00:56.991Z,13.53
2023-01-07T15:03:48.885Z,13.63
2023-01-07T15:06:39.252Z,13.63
2023-01-07T15:09:31.218Z,13.63
2023-01-07T15:12:20.232Z,13.71
2023-01-07T15:15:11.152Z,13.66
2023-01-07T15:17:41.023Z,13.66
2023-01-07T15:20:10.333Z,13.66
2023-01-07T15:22:48.011Z,13.73
2023-01-07T15:25:40.892Z,13.63
2023-01-07T15:28:43.091Z,13.63
2023-01-07T15:31:23.863Z,13.46
2023-01-07T15:34:02.790Z,13.42
2023-01-07T15:36:30.325Z,13.34
2023-01-07T15:38:59.746Z,13.32
2023-01-07T15:41:30.958Z,13.18
2023-01-07T15:43:59.629Z,13.13
2023-01-07T15:46:27.406Z,13.15
2023-01-07T15:49:05.202Z,13.04
2023-01-07T15:51:32.297Z,13.16
2023-01-07T15:53:58.827Z,13.05
2023-01-07T15:56:25.719Z,13.07
2023-01-07T15:58:52.596Z,12.96
2023-01-07T16:01:21.837Z,13.04
2023-01-07T16:03:52.390Z,12.94
2023-01-07T16:06:35.839Z,13.01
2023-01-07T16:09:16.364Z,12.99
2023-01-07T16:11:43.091Z,12.97
2023-01-07T16:14:19.320Z,12.98
2023-01-07T16:16:46.123Z,12.94
2023-01-07T16:19:21.323Z,13.03
2023-01-07T16:21:55.265Z,12.98
2023-01-07T16:24:22.085Z,12.91
2023-01-07T16:26:53.006Z,12.93
2023-01-07T16:29:27.087Z,12.93
2023-01-07T16:31:55.297Z,12.93
2023-01-07T16:34:24.886Z,12.88
2023-01-07T16:36:55.578Z,12.89
2023-01-07T16:39:25.592Z,12.85
2023-01-07T16:42:12.357Z,12.91
2023-01-07T16:44:58.195Z,12.86
2023-01-07T16:47:27.353Z,12.80
2023-01-07T16:49:56.030Z,12.85
2023-01-07T16:52:28.643Z,12.82
2023-01-07T16:54:55.146Z,12.79
2023-01-07T16:57:38.929Z,12.69
2023-01-07T17:00:17.098Z,12.78
2023-01-07T17:02:55.205Z,12.67
2023-01-07T17:05:27.766Z,12.59
2023-01-07T17:08:05.260Z,12.73
2023-01-07T17:10:40.609Z,12.61
2023-01-07T17:13:31.968Z,12.46
2023-01-07T17:16:26.290Z,12.55
2023-01-07T17:18:54.379Z,12.49
2023-01-07T17:21:41.499Z,12.51
2023-01-07T17:24:43.239Z,12.44
2023-01-07T17:27:20.959Z,12.48
2023-01-07T17:29:49.356Z,12.46
2023-01-07T17:32:16.113Z,12.49
2023-01-07T17:34:42.643Z,12.47
2023-01-07T17:37:14.006Z,12.44
2023-01-07T17:39:41.160Z,12.47
2023-01-07T17:42:46.935Z,12.44
2023-01-07T17:45:18.782Z,12.43
2023-01-07T17:47:46.471Z,12.41
2023-01-07T17:50:14.709Z,12.46
2023-01-07T17:52:44.400Z,12.37
2023-01-07T17:55:21.491Z,12.48
2023-01-07T17:57:48.132Z,12.51
2023-01-07T18:00:36.680Z,12.42
2023-01-07T18:03:03.643Z,12.41
2023-01-07T18:05:30.289Z,12.34
2023-01-07T18:07:57.166Z,12.28
2023-01-07T18:10:29.024Z,12.31
2023-01-07T18:12:56.143Z,12.32
2023-01-07T18:15:27.900Z,12.24
2023-01-07T18:17:54.443Z,12.22
2023-01-07T18:20:22.638Z,12.20
2023-01-07T18:22:49.708Z,12.18
2023-01-07T18:25:22.188Z,12.14
2023-01-07T18:27:52.874Z,12.16
2023-01-07T18:30:21.525Z,12.21
2023-01-07T18:32:49.733Z,12.19
2023-01-07T18:35:19.243Z,12.16
2023-01-07T18:37:50.055Z,12.13
2023-01-07T18:40:16.783Z,12.12
2023-01-07T18:42:43.327Z,12.07
2023-01-07T18:45:10.689Z,12.12
2023-01-07T18:47:37.310Z,12.15
2023-01-07T18:50:05.018Z,12.05
2023-01-07T18:52:33.480Z,12.10
2023-01-07T18:55:00.241Z,12.06
2023-01-07T18:57:26.875Z,12.11
2023-01-07T18:59:53.519Z,12.08
2023-01-07T19:02:21.539Z,11.97
2023-01-07T19:04:49.089Z,12.03
2023-01-07T19:07:16.812Z,11.97
2023-01-07T19:09:43.845Z,11.97
2023-01-07T19:12:14.330Z,12.02
2023-01-07T19:14:41.693Z,11.92
2023-01-07T19:17:08.862Z,11.82
2023-01-07T19:19:47.313Z,11.83
2023-01-07T19:22:16.027Z,11.79
2023-01-07T19:24:42.811Z,11.79
2023-01-07T19:27:11.525Z,11.80
2023-01-07T19:29:38.124Z,11.81
2023-01-07T19:32:05.018Z,11.74
2023-01-07T19:34:32.161Z,11.75
2023-01-07T19:36:58.764Z,11.70
2023-01-07T19:39:25.376Z,11.73
2023-01-07T19:41:52.133Z,11.73
2023-01-07T19:44:18.822Z,11.67
2023-01-07T19:46:45.331Z,11.64
2023-01-07T19:49:13.508Z,11.68
2023-01-07T19:51:42.085Z,11.64
2023-01-07T19:54:17.439Z,11.72
2023-01-07T19:56:44.222Z,11.71
2023-01-07T19:59:11.198Z,11.67
2023-01-07T20:01:39.004Z,11.73
2023-01-07T20:04:07.731Z,11.76
2023-01-07T20:06:38.811Z,11.74
2023-01-07T20:09:10.833Z,11.69
2023-01-07T20:11:42.533Z,11.70
2023-01-07T20:14:09.087Z,11.71
2023-01-07T20:16:36.999Z,11.74
2023-01-07T20:19:03.882Z,11.73
2023-01-07T20:21:30.509Z,11.79
2023-01-07T20:23:57.132Z,11.71
2023-01-07T20:26:26.625Z,11.77
2023-01-07T20:28:53.556Z,11.84
2023-01-07T20:31:21.639Z,11.81
2023-01-07T20:33:50.546Z,11.79
2023-01-07T20:36:19.527Z,11.76
2023-01-07T20:38:48.863Z,11.75
2023-01-07T20:41:17.955Z,11.62
2023-01-07T20:43:44.607Z,11.64
2023-01-07T20:46:11.430Z,11.64
2023-01-07T20:48:38.003Z,11.72
2023-01-07T20:51:09.160Z,11.65
2023-01-07T20:53:36.949Z,11.64
2023-01-07T20:56:05.294Z,11.66
2023-01-07T20:58:34.972Z,11.81
2023-01-07T21:01:03.781Z,11.91
2023-01-07T21:03:30.579Z,11.91
2023-01-07T21:05:57.844Z,11.85
2023-01-07T21:08:25.240Z,11.80
2023-01-07T21:10:52.438Z,11.80
2023-01-07T21:13:19.877Z,11.85
2023-01-07T21:15:46.444Z,11.81
2023-01-07T21:18:13.086Z,11.75
2023-01-07T21:20:40.596Z,11.82
2023-01-07T21:23:07.609Z,11.76
2023-01-07T21:25:34.216Z,11.84
2023-01-07T21:28:02.182Z,11.84
2023-01-07T21:30:29.250Z,11.87
2023-01-07T21:32:56.195Z,11.89
2023-01-07T21:35:22.865Z,11.96
2023-01-07T21:37:53.043Z,11.96
2023-01-07T21:40:19.889Z,11.99
2023-01-07T21:42:46.547Z,11.92
2023-01-07T21:45:13.282Z,11.89
2023-01-07T21:47:39.791Z,11.80
2023-01-07T21:50:06.671Z,11.96
2023-01-07T21:52:36.787Z,12.04
2023-01-07T21:55:04.243Z,11.99
2023-01-07T21:57:30.892Z,11.96
2023-01-07T21:59:57.438Z,11.96
2023-01-07T22:02:24.048Z,11.94
2023-01-07T22:04:50.688Z,11.95
2023-01-07T22:07:18.975Z,11.88
2023-01-07T22:09:45.811Z,11.81
2023-01-07T22:12:13.183Z,11.76
2023-01-07T22:14:40.255Z,11.93
2023-01-07T22:17:08.029Z,11.96
2023-01-07T22:19:34.625Z,11.94
2023-01-07T22:22:01.505Z,11.81
2023-01-07T22:24:28.191Z,11.70
2023-01-07T22:26:55.293Z,11.64
2023-01-07T22:29:22.015Z,11.60
2023-01-07T22:31:51.004Z,11.65
2023-01-07T22:34:17.620Z,11.72
2023-01-07T22:37:23.958Z,11.70
2023-01-07T22:39:57.076Z,11.71
2023-01-07T22:42:41.532Z,11.67
2023-01-07T22:45:14.541Z,11.77
2023-01-07T22:47:45.396Z,11.86
2023-01-07T22:50:14.544Z,11.84
2023-01-07T22:52:42.852Z,11.88
2023-01-07T22:55:12.023Z,11.78
2023-01-07T22:57:39.468Z,11.85
2023-01-07T23:00:08.494Z,11.75
2023-01-07T23:02:35.001Z,11.74
2023-01-07T23:05:01.589Z,11.78
2023-01-07T23:07:28.604Z,11.66
2023-01-07T23:09:55.070Z,11.67
2023-01-07T23:12:21.636Z,11.68
2023-01-07T23:14:48.278Z,11.72
2023-01-07T23:17:14.800Z,11.83
2023-01-07T23:19:41.381Z,11.89
2023-01-07T23:22:07.883Z,11.90
2023-01-07T23:24:35.968Z,11.94
2023-01-07T23:27:02.449Z,11.93
2023-01-07T23:29:28.912Z,11.86
2023-01-07T23:31:55.447Z,11.88
2023-01-07T23:34:21.989Z,11.80
2023-01-07T23:36:48.520Z,11.78
2023-01-07T23:39:15.176Z,11.72
2023-01-07T23:41:41.652Z,11.74
2023-01-07T23:44:08.168Z,11.76
2023-01-07T23:46:34.712Z,11.89
2023-01-07T23:49:01.251Z,11.88
2023-01-07T23:51:27.967Z,11.87
2023-01-07T23:53:54.797Z,11.93
2023-01-07T23:56:21.548Z,11.75
2023-01-07T23:58:49.190Z,11.80
